Time,TemperatureF,DewpointF,PressureIn,WindDirection,WindDirectionDegrees,WindSpeedMPH,WindSpeedGustMPH,Humidity,HourlyPrecipIn,Conditions,Clouds,dailyrainin,SoftwareType,DateUTC
2013-08-02 05:02:00,63.0,62.4,29.79,SSW,202,0.0,0.0,98,0.14,,---,0.27,VWS V14.01,2013-08-02 09:02:00,
2013-08-02 05:07:00,63.0,62.4,29.80,SSW,202,0.0,0.0,98,0.15,,---,0.28,VWS V14.01,2013-08-02 09:07:00,
2013-08-02 05:12:00,63.0,62.4,29.80,NW,315,0.0,0.0,98,0.15,,---,0.29,VWS V14.01,2013-08-02 09:12:00,
2013-08-02 05:17:00,63.0,62.4,29.80,NW,315,0.0,0.0,98,0.16,,---,0.30,VWS V14.01,2013-08-02 09:17:00,
2013-08-02 21:17:00,65.0,62.0,29.83,WSW,247,0.0,0.0,90,0.00,,---,0.50,VWS V14.01,2013-08-03 01:17:00,
2013-08-02 21:22:00,64.0,61.3,29.83,WSW,247,0.0,0.0,91,0.18,,---,0.50,VWS V14.01,2013-08-03 01:22:00,
2013-08-02 21:27:00,64.0,61.0,29.83,WSW,247,0.0,0.0,90,0.18,,---,0.50,VWS V14.01,2013-08-03 01:27:00,
2013-08-02 21:32:00,64.0,61.3,29.83,WSW,247,0.0,0.0,91,0.18,,---,0.50,VWS V14.01,2013-08-03 01:32:00,
2013-08-02 21:37:00,64.0,61.6,29.83,WSW,247,0.0,0.0,92,0.18,,---,0.50,VWS V14.01,2013-08-03 01:37:00,
2013-08-02 21:42:00,64.0,61.9,29.83,WSW,247,0.0,0.0,93,0.18,,---,0.50,VWS V14.01,2013-08-03 01:42:00,
2013-08-02 21:47:00,64.0,61.9,29.82,WSW,247,0.0,0.0,93,0.18,,---,0.50,VWS V14.01,2013-08-03 01:47:00,
2013-08-02 21:52:00,63.0,61.0,29.83,WSW,247,0.0,0.0,93,0.18,,---,0.50,VWS V14.01,2013-08-03 01:52:00,
2013-08-02 21:57:00,63.0,61.2,29.83,WSW,247,0.0,0.0,94,0.18,,---,0.50,VWS V14.01,2013-08-03 01:57:00,
2013-08-02 22:02:00,63.0,61.2,29.83,WSW,247,0.0,0.0,94,0.18,,---,0.50,VWS V14.01,2013-08-03 02:02:00,
2013-08-02 22:07:00,63.0,61.5,29.83,WSW,247,0.0,0.0,95,0.18,,---,0.50,VWS V14.01,2013-08-03 02:07:00,
2013-08-02 22:12:00,63.0,61.8,29.84,WSW,247,0.0,0.0,96,0.18,,---,0.50,VWS V14.01,2013-08-03 02:12:00,
2013-08-02 22:17:00,63.0,61.8,29.83,WSW,247,0.0,0.0,96,0.18,,---,0.50,VWS V14.01,2013-08-03 02:17:00,
2013-08-02 22:22:00,63.0,62.1,29.83,WSW,247,0.0,0.0,97,0.00,,---,0.50,VWS V14.01,2013-08-03 02:22:00,
2013-08-02 22:27:00,63.0,62.4,29.83,WSW,247,0.0,0.0,98,0.00,,---,0.50,VWS V14.01,2013-08-03 02:27:00,
2013-08-02 22:32:00,63.0,62.4,29.83,WSW,247,0.0,0.0,98,0.00,,---,0.50,VWS V14.01,2013-08-03 02:32:00,
2013-08-02 22:37:00,63.0,62.4,29.82,WSW,247,0.0,0.0,98,0.00,,---,0.50,VWS V14.01,2013-08-03 02:37:00,
2013-08-02 22:42:00,63.0,62.4,29.83,WSW,247,0.0,0.0,98,0.00,,---,0.50,VWS V14.01,2013-08-03 02:42:00,
2013-08-02 22:47:00,63.0,62.4,29.83,WSW,247,0.0,0.0,98,0.00,,---,0.50,VWS V14.01,2013-08-03 02:47:00,
2013-08-02 22:52:00,63.0,62.4,29.83,WSW,247,0.0,0.0,98,0.00,,---,0.50,VWS V14.01,2013-08-03 02:52:00,
2013-08-02 22:57:00,63.0,62.4,29.83,WSW,247,0.0,0.0,98,0.00,,---,0.50,VWS V14.01,2013-08-03 02:57:00,
2013-08-02 23:02:00,63.0,62.4,29.83,WSW,247,0.0,0.0,98,0.00,,---,0.50,VWS V14.01,2013-08-03 03:02:00,
2013-08-02 23:07:00,63.0,62.4,29.83,WSW,247,0.0,0.0,98,0.00,,---,0.50,VWS V14.01,2013-08-03 03:07:00,
2013-08-02 23:12:00,63.0,62.4,29.83,WSW,247,0.0,0.0,98,0.00,,---,0.50,VWS V14.01,2013-08-03 03:12:00,
2013-08-02 23:17:00,63.0,62.4,29.84,WSW,247,0.0,0.0,98,0.00,,---,0.50,VWS V14.01,2013-08-03 03:17:00,
2013-08-02 23:22:00,63.0,62.4,29.83,WSW,247,0.0,0.0,98,0.00,,---,0.50,VWS V14.01,2013-08-03 03:22:00,
2013-08-02 23:27:00,64.0,63.1,29.84,SSE,157,0.0,0.0,97,0.00,,---,0.50,VWS V14.01,2013-08-03 03:27:00,
2013-08-02 23:32:00,64.0,62.8,29.84,ENE,67,0.0,2.0,96,0.00,,---,0.50,VWS V14.01,2013-08-03 03:32:00,
2013-08-02 23:37:00,65.0,62.9,29.83,ENE,67,0.0,0.0,93,0.00,,---,0.50,VWS V14.01,2013-08-03 03:37:00,
2013-08-02 23:42:00,65.0,62.3,29.84,ENE,67,0.0,0.0,91,0.00,,---,0.50,VWS V14.01,2013-08-03 03:42:00,